createdAt,value
2022-10-28T00:01:10.109Z,58.36
2022-10-28T00:03:42.004Z,58.37
2022-10-28T00:06:16.226Z,58.38
2022-10-28T00:08:44.329Z,58.43
2022-10-28T00:11:13.695Z,58.58
2022-10-28T00:13:41.429Z,58.61
2022-10-28T00:16:16.798Z,58.71
2022-10-28T00:18:43.818Z,58.72
2022-10-28T00:21:13.985Z,58.60
2022-10-28T00:23:40.889Z,58.80
2022-10-28T00:26:22.087Z,58.83
2022-10-28T00:28:53.348Z,58.53
2022-10-28T00:31:22.480Z,58.69
2022-10-28T00:33:49.661Z,58.69
2022-10-28T00:36:20.871Z,59.05
2022-10-28T00:38:48.611Z,58.81
2022-10-28T00:41:37.298Z,58.66
2022-10-28T00:44:43.348Z,59.15
2022-10-28T00:47:52.965Z,58.83
2022-10-28T00:50:42.322Z,59.10
2022-10-28T00:53:21.956Z,58.88
2022-10-28T00:55:49.954Z,59.27
2022-10-28T00:58:18.913Z,59.05
2022-10-28T01:00:45.382Z,59.09
2022-10-28T01:03:12.682Z,59.25
2022-10-28T01:05:42.064Z,59.26
2022-10-28T01:08:09.216Z,58.98
2022-10-28T01:10:40.927Z,58.97
2022-10-28T01:13:07.322Z,59.21
2022-10-28T01:15:59.898Z,59.08
2022-10-28T01:18:47.687Z,59.42
2022-10-28T01:21:32.498Z,59.38
2022-10-28T01:23:58.895Z,59.15
2022-10-28T01:26:46.678Z,59.34
2022-10-28T01:29:42.902Z,59.60
2022-10-28T01:32:36.039Z,59.68
2022-10-28T01:35:43.963Z,59.48
2022-10-28T01:38:41.571Z,59.54
2022-10-28T01:41:28.245Z,59.79
2022-10-28T01:44:26.876Z,59.60
2022-10-28T01:47:02.125Z,59.71
2022-10-28T01:49:40.839Z,59.71
2022-10-28T01:52:12.953Z,59.90
2022-10-28T01:54:44.343Z,59.75
2022-10-28T01:57:14.898Z,59.99
2022-10-28T01:59:43.191Z,59.75
2022-10-28T02:02:09.663Z,59.83
2022-10-28T02:04:37.077Z,59.96
2022-10-28T02:07:04.998Z,60.15
2022-10-28T02:09:59.888Z,59.95
2022-10-28T02:12:35.425Z,59.90
2022-10-28T02:15:14.568Z,60.03
2022-10-28T02:17:58.117Z,60.14
2022-10-28T02:20:33.581Z,59.94
2022-10-28T02:23:31.628Z,60.11
2022-10-28T02:26:13.698Z,59.76
2022-10-28T02:29:12.718Z,59.82
2022-10-28T02:31:50.321Z,59.82
2022-10-28T02:34:33.813Z,59.89
2022-10-28T02:37:06.904Z,59.99
2022-10-28T02:39:40.015Z,59.89
2022-10-28T02:42:14.611Z,59.98
2022-10-28T02:44:48.990Z,59.84
2022-10-28T02:47:20.804Z,59.83
2022-10-28T02:49:52.513Z,59.69
2022-10-28T02:52:22.753Z,59.65
2022-10-28T02:54:56.300Z,60.06
2022-10-28T02:57:29.738Z,60.13
2022-10-28T02:59:58.720Z,60.20
2022-10-28T03:02:25.602Z,59.97
2022-10-28T03:04:54.298Z,59.72
2022-10-28T03:07:21.028Z,60.07
2022-10-28T03:09:47.497Z,60.10
2022-10-28T03:12:14.200Z,59.83
2022-10-28T03:14:45.504Z,60.01
2022-10-28T03:17:12.012Z,59.75
2022-10-28T03:19:38.489Z,59.98
2022-10-28T03:22:05.208Z,59.63
2022-10-28T03:24:33.033Z,59.83
2022-10-28T03:26:59.871Z,59.68
2022-10-28T03:29:26.352Z,59.86
2022-10-28T03:31:52.780Z,60.16
2022-10-28T03:34:21.051Z,60.02
2022-10-28T03:36:47.543Z,59.93
2022-10-28T03:39:14.304Z,60.04
2022-10-28T03:41:40.801Z,60.30
2022-10-28T03:44:11.460Z,59.90
2022-10-28T03:46:38.238Z,60.14
2022-10-28T03:49:04.759Z,60.13
2022-10-28T03:51:31.254Z,59.95
2022-10-28T03:53:57.925Z,60.16
2022-10-28T03:56:26.066Z,60.24
2022-10-28T04:01:24.037Z,60.19
2022-10-28T04:03:50.590Z,59.88
2022-10-28T04:06:19.051Z,59.75
2022-10-28T04:08:45.519Z,59.71
2022-10-28T04:11:12.002Z,59.90
2022-10-28T04:13:38.478Z,59.88
2022-10-28T04:16:09.506Z,59.93
2022-10-28T04:18:36.012Z,59.83
2022-10-28T04:21:03.597Z,59.98
2022-10-28T04:23:30.082Z,60.04
2022-10-28T04:25:57.979Z,59.97
2022-10-28T04:28:24.442Z,60.07
2022-10-28T04:30:50.955Z,59.89
2022-10-28T04:33:17.468Z,59.83
2022-10-28T04:35:45.111Z,59.64
2022-10-28T04:38:15.248Z,59.56
2022-10-28T04:40:41.963Z,59.78
2022-10-28T04:43:10.072Z,59.58
2022-10-28T04:45:40.062Z,59.79
2022-10-28T04:48:06.697Z,60.18
2022-10-28T04:50:33.166Z,60.16
2022-10-28T04:52:59.659Z,60.22
2022-10-28T04:55:30.387Z,60.26
2022-10-28T04:57:58.845Z,60.29
2022-10-28T05:00:27.521Z,60.11
2022-10-28T05:02:54.735Z,60.52
2022-10-28T05:05:22.132Z,60.56
2022-10-28T05:07:48.674Z,60.37
2022-10-28T05:10:18.238Z,60.23
2022-10-28T05:12:47.353Z,60.26
2022-10-28T05:15:19.176Z,60.48
2022-10-28T05:17:47.276Z,60.31
2022-10-28T05:20:16.265Z,60.36
2022-10-28T05:22:53.956Z,60.44
2022-10-28T05:25:25.212Z,60.15
2022-10-28T05:27:52.080Z,60.43
2022-10-28T05:30:19.354Z,60.26
2022-10-28T05:32:47.429Z,60.66
2022-10-28T05:35:16.987Z,60.67
2022-10-28T05:37:43.881Z,60.26
2022-10-28T05:40:11.093Z,60.16
2022-10-28T05:42:44.384Z,60.43
2022-10-28T05:45:13.998Z,60.53
2022-10-28T05:47:49.352Z,60.29
2022-10-28T05:50:16.942Z,60.34
2022-10-28T05:52:48.182Z,60.01
2022-10-28T05:55:15.418Z,60.25
2022-10-28T05:57:41.947Z,60.31
2022-10-28T06:00:09.403Z,60.39
2022-10-28T06:02:42.709Z,60.27
2022-10-28T06:05:11.573Z,60.20
2022-10-28T06:07:39.746Z,60.38
2022-10-28T06:10:08.139Z,60.35
2022-10-28T06:15:05.621Z,60.55
2022-10-28T06:17:32.130Z,60.52
2022-10-28T06:19:58.623Z,60.24
2022-10-28T06:22:25.161Z,60.57
2022-10-28T06:24:53.533Z,60.25
2022-10-28T06:27:20.025Z,60.36
2022-10-28T06:29:46.491Z,60.19
2022-10-28T06:32:12.991Z,60.51
2022-10-28T06:34:40.461Z,60.38
2022-10-28T06:37:08.856Z,60.45
2022-10-28T06:39:36.937Z,60.46
2022-10-28T06:42:03.462Z,60.26
2022-10-28T06:44:31.470Z,60.39
2022-10-28T06:46:59.451Z,60.25
2022-10-28T06:49:25.915Z,60.60
2022-10-28T06:51:52.387Z,60.27
2022-10-28T06:54:23.138Z,60.69
2022-10-28T06:56:49.690Z,60.64
2022-10-28T06:59:16.315Z,60.93
2022-10-28T07:01:42.930Z,60.62
2022-10-28T07:04:14.068Z,60.94
2022-10-28T07:06:41.184Z,60.94
2022-10-28T07:09:07.958Z,60.93
2022-10-28T07:11:34.496Z,60.75
2022-10-28T07:14:17.579Z,61.00
2022-10-28T07:16:44.043Z,61.00
2022-10-28T07:19:10.628Z,61.04
2022-10-28T07:21:37.114Z,61.06
2022-10-28T07:24:13.853Z,60.91
2022-10-28T07:26:42.523Z,60.77
2022-10-28T07:29:09.078Z,60.83
2022-10-28T07:31:35.556Z,60.83
2022-10-28T07:34:09.716Z,60.75
2022-10-28T07:36:36.382Z,61.07
2022-10-28T07:39:02.972Z,60.86
2022-10-28T07:41:29.472Z,60.77
2022-10-28T07:43:56.130Z,61.27
2022-10-28T07:46:24.224Z,60.89
2022-10-28T07:48:50.689Z,60.97
2022-10-28T07:51:17.197Z,61.29
2022-10-28T07:53:43.684Z,61.26
2022-10-28T07:56:15.695Z,61.05
2022-10-28T07:58:43.972Z,60.96
2022-10-28T08:01:12.740Z,60.94
2022-10-28T08:03:39.889Z,61.14
2022-10-28T08:06:12.333Z,61.37
2022-10-28T08:08:39.776Z,60.67
2022-10-28T08:11:13.663Z,60.80
2022-10-28T08:13:40.519Z,61.25
2022-10-28T08:16:08.171Z,60.95
2022-10-28T08:18:35.895Z,60.59
2022-10-28T08:21:04.251Z,60.48
2022-10-28T08:23:30.827Z,60.42
2022-10-28T08:25:58.415Z,60.62
2022-10-28T08:28:25.005Z,60.16
2022-10-28T08:31:04.183Z,60.32
2022-10-28T08:33:39.598Z,60.30
2022-10-28T08:36:07.289Z,59.80
2022-10-28T08:38:34.005Z,59.78
2022-10-28T08:41:19.059Z,59.75
2022-10-28T08:44:24.675Z,59.34
2022-10-28T08:47:15.153Z,59.31
2022-10-28T08:49:45.809Z,59.09
2022-10-28T08:52:33.073Z,58.64
2022-10-28T08:55:13.770Z,58.30
2022-10-28T08:58:02.096Z,58.26
2022-10-28T09:00:32.370Z,58.15
2022-10-28T09:03:07.686Z,57.79
2022-10-28T09:05:41.033Z,57.74
2022-10-28T09:08:20.183Z,57.86
2022-10-28T09:11:05.328Z,57.63
2022-10-28T09:13:50.312Z,57.38
2022-10-28T09:16:46.228Z,57.39
2022-10-28T09:19:23.336Z,57.36
2022-10-28T09:22:22.414Z,57.03
2022-10-28T09:25:30.786Z,56.73
2022-10-28T09:28:32.682Z,56.58
2022-10-28T09:31:10.893Z,56.42
2022-10-28T09:33:43.482Z,56.08
2022-10-28T09:36:18.647Z,55.95
2022-10-28T09:38:45.554Z,56.04
2022-10-28T09:41:20.016Z,55.79
2022-10-28T09:43:54.708Z,55.80
2022-10-28T09:46:23.781Z,55.90
2022-10-28T09:48:55.658Z,55.88
2022-10-28T09:51:52.663Z,55.91
2022-10-28T09:54:29.907Z,55.42
2022-10-28T09:56:56.376Z,55.59
2022-10-28T09:59:22.853Z,55.33
2022-10-28T10:01:50.042Z,54.89
2022-10-28T10:04:23.271Z,54.85
2022-10-28T10:06:54.881Z,54.51
2022-10-28T10:09:26.197Z,54.75
2022-10-28T10:11:56.963Z,54.50
2022-10-28T10:14:30.729Z,54.51
2022-10-28T10:17:05.287Z,54.48
2022-10-28T10:19:56.813Z,54.28
2022-10-28T10:22:33.737Z,54.37
2022-10-28T10:25:01.039Z,54.07
2022-10-28T10:27:30.244Z,54.13
2022-10-28T10:30:19.207Z,53.72
2022-10-28T10:32:47.702Z,53.99
2022-10-28T10:35:41.888Z,53.58
2022-10-28T10:38:15.441Z,53.27
2022-10-28T10:40:50.224Z,53.26
2022-10-28T10:43:20.564Z,53.11
2022-10-28T10:46:00.800Z,52.94
2022-10-28T10:48:29.229Z,52.88
2022-10-28T10:50:56.663Z,52.60
2022-10-28T10:53:28.882Z,52.80
2022-10-28T10:56:26.280Z,52.37
2022-10-28T10:58:55.046Z,52.50
2022-10-28T11:01:26.960Z,52.33
2022-10-28T11:06:38.388Z,52.07
2022-10-28T11:09:17.671Z,51.63
2022-10-28T11:11:44.168Z,51.50
2022-10-28T11:14:26.098Z,51.25
2022-10-28T11:16:57.494Z,51.16
2022-10-28T11:19:28.456Z,51.35
2022-10-28T11:22:13.414Z,50.99
2022-10-28T11:25:07.813Z,50.69
2022-10-28T11:27:39.291Z,50.82
2022-10-28T11:30:13.745Z,50.01
2022-10-28T11:32:54.562Z,50.05
2022-10-28T11:36:03.035Z,49.58
2022-10-28T11:39:04.785Z,49.57
2022-10-28T11:41:50.408Z,49.11
2022-10-28T11:44:45.538Z,48.85
2022-10-28T11:47:24.344Z,48.97
2022-10-28T11:50:36.386Z,48.82
2022-10-28T11:53:25.755Z,48.70
2022-10-28T11:56:11.493Z,48.53
2022-10-28T11:58:51.417Z,48.59
2022-10-28T12:01:26.932Z,48.54
2022-10-28T12:04:32.320Z,48.23
2022-10-28T12:07:22.776Z,47.76
2022-10-28T12:10:09.609Z,47.43
2022-10-28T12:12:43.895Z,47.57
2022-10-28T12:15:50.042Z,47.81
2022-10-28T12:18:27.584Z,47.94
2022-10-28T12:21:03.132Z,48.12
2022-10-28T12:23:33.864Z,48.16
2022-10-28T12:26:05.727Z,48.28
2022-10-28T12:28:37.737Z,48.17
2022-10-28T12:31:20.460Z,48.03
2022-10-28T12:33:51.589Z,47.91
2022-10-28T12:36:32.022Z,47.77
2022-10-28T12:39:04.293Z,47.90
2022-10-28T12:41:46.709Z,47.57
2022-10-28T12:44:18.709Z,47.20
2022-10-28T12:46:57.417Z,47.38
2022-10-28T12:49:35.732Z,47.33
2022-10-28T12:52:15.276Z,47.14
2022-10-28T12:55:26.838Z,47.22
2022-10-28T12:58:36.622Z,47.04
2022-10-28T13:01:14.353Z,46.89
2022-10-28T13:03:41.039Z,46.71
2022-10-28T13:06:49.261Z,46.47
2022-10-28T13:09:46.619Z,46.51
2022-10-28T13:12:34.620Z,46.38
2022-10-28T13:15:19.447Z,46.58
2022-10-28T13:17:55.182Z,46.62
2022-10-28T13:20:48.277Z,46.56
2022-10-28T13:23:36.589Z,46.66
2022-10-28T13:26:27.878Z,46.63
2022-10-28T13:28:57.928Z,46.71
2022-10-28T13:31:40.336Z,46.61
2022-10-28T13:34:10.990Z,46.93
2022-10-28T13:36:42.642Z,46.50
2022-10-28T13:39:26.020Z,46.84
2022-10-28T13:42:14.815Z,46.74
2022-10-28T13:44:58.729Z,46.88
2022-10-28T13:47:37.609Z,46.93
2022-10-28T13:50:10.911Z,47.00
2022-10-28T13:52:39.966Z,47.00
2022-10-28T13:55:18.817Z,46.93
2022-10-28T13:57:48.497Z,47.25
2022-10-28T14:00:17.840Z,47.24
2022-10-28T14:02:49.248Z,47.37
2022-10-28T14:05:19.475Z,47.52
2022-10-28T14:07:58.604Z,47.42
2022-10-28T14:10:27.813Z,47.47
2022-10-28T14:13:00.510Z,47.40
2022-10-28T14:15:41.599Z,47.35
2022-10-28T14:18:41.677Z,47.55
2022-10-28T14:21:01.774Z,47.56
2022-10-28T14:23:28.475Z,47.67
2022-10-28T14:26:05.032Z,47.49
2022-10-28T14:28:31.533Z,47.50
2022-10-28T14:31:09.939Z,47.56
2022-10-28T14:33:45.516Z,47.84
2022-10-28T14:36:19.599Z,47.76
2022-10-28T14:39:01.157Z,47.78
2022-10-28T14:41:58.789Z,47.87
2022-10-28T14:45:06.904Z,47.93
2022-10-28T14:47:57.429Z,47.87
2022-10-28T14:50:43.847Z,47.95
2022-10-28T14:53:31.876Z,48.02
2022-10-28T14:56:05.947Z,47.94
2022-10-28T14:58:37.988Z,48.10
2022-10-28T15:01:07.576Z,48.09
2022-10-28T15:03:34.131Z,48.17
2022-10-28T15:06:23.680Z,48.38
2022-10-28T15:08:50.541Z,48.59
2022-10-28T15:11:17.653Z,48.58
2022-10-28T15:13:44.259Z,48.86
2022-10-28T15:16:23.866Z,48.54
2022-10-28T15:18:53.615Z,48.55
2022-10-28T15:21:22.279Z,48.84
2022-10-28T15:24:16.040Z,48.92
2022-10-28T15:26:42.580Z,48.91
2022-10-28T15:29:09.792Z,49.09
2022-10-28T15:32:13.764Z,49.15
2022-10-28T15:34:44.646Z,49.14
2022-10-28T15:37:17.679Z,49.36
2022-10-28T15:39:49.184Z,49.32
2022-10-28T15:42:42.201Z,49.46
2022-10-28T15:45:24.180Z,49.57
2022-10-28T15:47:51.942Z,49.79
2022-10-28T15:50:18.539Z,49.88
2022-10-28T15:52:48.149Z,49.95
2022-10-28T15:55:41.637Z,50.13
2022-10-28T15:58:19.537Z,50.14
2022-10-28T16:00:57.316Z,50.24
2022-10-28T16:03:40.306Z,50.42
2022-10-28T16:06:38.776Z,50.36
2022-10-28T16:09:15.823Z,50.34
2022-10-28T16:11:56.560Z,50.73
2022-10-28T16:14:31.229Z,50.76
2022-10-28T16:19:45.826Z,50.97
2022-10-28T16:22:14.232Z,51.06
2022-10-28T16:24:45.475Z,51.07
2022-10-28T16:27:21.628Z,51.21
2022-10-28T16:29:48.779Z,51.29
2022-10-28T16:32:16.180Z,51.45
2022-10-28T16:34:46.731Z,51.56
2022-10-28T16:37:27.129Z,51.26
2022-10-28T16:39:54.218Z,51.40
2022-10-28T16:42:22.104Z,51.51
2022-10-28T16:44:49.124Z,51.62
2022-10-28T16:47:17.916Z,51.73
2022-10-28T16:49:45.208Z,51.99
2022-10-28T16:52:19.988Z,51.95
2022-10-28T16:54:50.849Z,51.84
2022-10-28T16:57:19.392Z,51.95
2022-10-28T16:59:46.652Z,52.12
2022-10-28T17:02:35.256Z,52.31
2022-10-28T17:05:07.292Z,52.00
2022-10-28T17:07:33.789Z,52.34
2022-10-28T17:10:00.269Z,52.34
2022-10-28T17:12:27.743Z,52.68
2022-10-28T17:14:55.573Z,52.88
2022-10-28T17:17:22.059Z,52.73
2022-10-28T17:19:48.595Z,52.71
2022-10-28T17:22:15.145Z,52.92
2022-10-28T17:24:43.505Z,52.99
2022-10-28T17:27:10.005Z,52.82
2022-10-28T17:29:36.633Z,52.99
2022-10-28T17:32:03.345Z,52.97
2022-10-28T17:34:30.529Z,53.30
2022-10-28T17:36:57.037Z,53.24
2022-10-28T17:39:26.431Z,53.23
2022-10-28T17:41:53.397Z,53.21
2022-10-28T17:44:23.005Z,53.38
2022-10-28T17:46:49.867Z,53.38
2022-10-28T17:49:16.587Z,53.37
2022-10-28T17:51:43.615Z,53.52
2022-10-28T17:54:14.503Z,53.94
2022-10-28T17:56:42.141Z,53.79
2022-10-28T17:59:09.202Z,53.63
2022-10-28T18:01:35.821Z,53.85
2022-10-28T18:04:07.209Z,53.81
2022-10-28T18:06:34.227Z,54.02
2022-10-28T18:09:00.982Z,54.18
2022-10-28T18:11:27.708Z,54.03
2022-10-28T18:13:55.902Z,54.04
2022-10-28T18:16:25.316Z,54.42
2022-10-28T18:18:53.258Z,54.64
2022-10-28T18:21:20.627Z,54.48
2022-10-28T18:23:57.030Z,54.54
2022-10-28T18:26:27.767Z,54.80
2022-10-28T18:28:54.629Z,54.67
2022-10-28T18:31:21.185Z,54.75
2022-10-28T18:33:49.116Z,55.06
2022-10-28T18:36:22.044Z,55.08
2022-10-28T18:38:49.505Z,54.90
2022-10-28T18:41:18.576Z,55.05
2022-10-28T18:43:45.489Z,55.11
2022-10-28T18:46:14.490Z,55.23
2022-10-28T18:48:41.209Z,55.18
2022-10-28T18:51:10.931Z,55.26
2022-10-28T18:53:39.649Z,55.33
2022-10-28T18:56:08.500Z,55.32
2022-10-28T18:58:35.346Z,55.27
2022-10-28T19:01:10.095Z,55.67
2022-10-28T19:03:37.391Z,55.37
2022-10-28T19:06:07.117Z,55.50
2022-10-28T19:08:33.979Z,55.63
2022-10-28T19:11:01.774Z,55.74
2022-10-28T19:13:28.340Z,55.61
2022-10-28T19:15:55.151Z,55.76
2022-10-28T19:18:22.043Z,55.98
2022-10-28T19:20:48.781Z,56.10
2022-10-28T19:23:15.232Z,56.27
2022-10-28T19:25:42.509Z,56.09
2022-10-28T19:28:09.017Z,56.17
2022-10-28T19:30:36.203Z,56.29
2022-10-28T19:33:02.670Z,56.13
2022-10-28T19:35:29.414Z,56.25
2022-10-28T19:37:55.941Z,56.41
2022-10-28T19:40:22.402Z,56.50
2022-10-28T19:45:28.820Z,56.28
2022-10-28T19:47:55.593Z,56.67
2022-10-28T19:50:22.260Z,56.44
2022-10-28T19:52:48.724Z,56.66
2022-10-28T19:55:19.381Z,56.43
2022-10-28T19:57:47.809Z,56.78
2022-10-28T20:00:17.081Z,56.37
2022-10-28T20:02:43.644Z,56.84
2022-10-28T20:05:10.222Z,57.13
2022-10-28T20:07:36.700Z,56.79
2022-10-28T20:10:03.304Z,57.04
2022-10-28T20:12:29.791Z,56.85
2022-10-28T20:14:56.339Z,56.77
2022-10-28T20:17:22.862Z,56.60
2022-10-28T20:19:49.370Z,56.62
2022-10-28T20:22:17.239Z,57.02
2022-10-28T20:24:45.329Z,56.90
2022-10-28T20:27:11.792Z,57.17
2022-10-28T20:29:38.236Z,57.31
2022-10-28T20:32:04.695Z,57.20
2022-10-28T20:34:35.010Z,57.19
2022-10-28T20:37:01.516Z,57.49
2022-10-28T20:39:28.008Z,57.06
2022-10-28T20:41:54.513Z,57.45
2022-10-28T20:44:25.292Z,57.23
2022-10-28T20:46:51.807Z,57.43
2022-10-28T20:49:18.276Z,57.45
2022-10-28T20:51:44.838Z,57.57
2022-10-28T20:54:20.568Z,57.64
2022-10-28T20:56:47.118Z,57.75
2022-10-28T20:59:13.560Z,57.63
2022-10-28T21:01:40.876Z,57.59
2022-10-28T21:04:12.121Z,57.88
2022-10-28T21:06:39.236Z,57.70
2022-10-28T21:09:06.479Z,57.69
2022-10-28T21:11:33.075Z,57.81
2022-10-28T21:14:03.360Z,57.90
2022-10-28T21:16:30.408Z,57.92
2022-10-28T21:18:59.042Z,57.83
2022-10-28T21:21:25.640Z,58.03
2022-10-28T21:23:52.574Z,57.72
2022-10-28T21:26:19.558Z,57.87
2022-10-28T21:28:52.649Z,57.84
2022-10-28T21:31:20.813Z,57.88
2022-10-28T21:33:47.655Z,57.40
2022-10-28T21:36:19.921Z,57.31
2022-10-28T21:38:47.201Z,57.44
2022-10-28T21:41:17.143Z,57.59
2022-10-28T21:43:47.670Z,57.62
2022-10-28T21:46:18.944Z,58.01
2022-10-28T21:48:46.084Z,57.72
2022-10-28T21:51:15.257Z,57.75
2022-10-28T21:53:43.336Z,57.86
2022-10-28T21:56:18.514Z,57.93
2022-10-28T21:58:46.931Z,58.32
2022-10-28T22:01:19.319Z,58.33
2022-10-28T22:03:46.256Z,57.94
2022-10-28T22:06:13.026Z,58.47
2022-10-28T22:08:39.620Z,58.09
2022-10-28T22:11:17.504Z,58.10
2022-10-28T22:13:44.124Z,58.34
2022-10-28T22:16:12.779Z,58.13
2022-10-28T22:18:39.357Z,58.22
2022-10-28T22:21:15.437Z,58.49
2022-10-28T22:23:42.088Z,58.36
2022-10-28T22:26:12.374Z,58.33
2022-10-28T22:28:38.933Z,58.21
2022-10-28T22:31:08.229Z,58.24
2022-10-28T22:33:35.579Z,58.48
2022-10-28T22:36:09.804Z,58.70
2022-10-28T22:38:36.384Z,58.83
2022-10-28T22:41:04.532Z,58.51
2022-10-28T22:43:31.287Z,58.48
2022-10-28T22:45:59.868Z,58.86
2022-10-28T22:48:27.329Z,58.84
2022-10-28T22:50:54.061Z,58.92
2022-10-28T22:53:20.606Z,58.41
2022-10-28T22:55:47.522Z,58.93
2022-10-28T22:58:15.685Z,58.84
2022-10-28T23:00:42.420Z,58.52
2022-10-28T23:03:08.989Z,58.95
2022-10-28T23:05:36.817Z,58.93
2022-10-28T23:08:04.052Z,59.04
2022-10-28T23:10:30.757Z,58.81
2022-10-28T23:12:58.682Z,59.24
2022-10-28T23:15:30.068Z,59.17
2022-10-28T23:17:56.735Z,59.02
2022-10-28T23:20:24.951Z,59.29
2022-10-28T23:22:54.637Z,58.92
2022-10-28T23:25:21.216Z,58.78
2022-10-28T23:27:47.654Z,58.88
2022-10-28T23:30:14.125Z,59.13
2022-10-28T23:32:40.584Z,58.87
2022-10-28T23:35:08.275Z,58.94
2022-10-28T23:37:34.865Z,59.27
2022-10-28T23:40:01.455Z,59.23
2022-10-28T23:42:28.256Z,59.05
2022-10-28T23:44:57.497Z,59.31
2022-10-28T23:47:23.986Z,59.51
2022-10-28T23:49:50.454Z,59.36
2022-10-28T23:52:16.908Z,59.70
2022-10-28T23:54:46.252Z,60.09
2022-10-28T23:57:12.863Z,59.81
2022-10-28T23:59:39.387Z,59.61
